createdAt,value
2022-08-11T00:00:14.246Z,14.60
2022-08-11T00:04:12.950Z,14.50
2022-08-11T00:08:11.945Z,14.50
2022-08-11T00:12:18.254Z,14.40
2022-08-11T00:16:22.960Z,14.30
2022-08-11T00:20:20.678Z,14.30
2022-08-11T00:24:19.024Z,14.20
2022-08-11T00:28:32.011Z,14.20
2022-08-11T00:32:31.080Z,14.10
2022-08-11T00:36:46.689Z,14.10
2022-08-11T00:40:56.935Z,14.00
2022-08-11T00:45:17.998Z,14.00
2022-08-11T00:49:38.607Z,14.00
2022-08-11T00:53:59.889Z,13.90
2022-08-11T00:58:22.622Z,13.90
2022-08-11T01:02:47.609Z,13.80
2022-08-11T01:07:00.436Z,13.80
2022-08-11T01:11:27.477Z,13.70
2022-08-11T01:15:57.038Z,13.60
2022-08-11T01:20:47.556Z,13.60
2022-08-11T01:25:23.335Z,13.50
2022-08-11T01:29:57.407Z,13.50
2022-08-11T01:34:45.470Z,13.40
2022-08-11T01:39:26.554Z,13.40
2022-08-11T01:44:27.982Z,13.40
2022-08-11T01:48:42.855Z,13.30
2022-08-11T01:53:02.454Z,13.20
2022-08-11T01:57:34.200Z,13.20
2022-08-11T02:01:58.445Z,13.20
2022-08-11T02:06:55.366Z,13.20
2022-08-11T02:11:34.471Z,13.10
2022-08-11T02:15:47.533Z,13.10
2022-08-11T02:20:52.187Z,13.00
2022-08-11T02:25:13.264Z,13.00
2022-08-11T02:29:32.758Z,13.00
2022-08-11T02:33:36.901Z,13.00
2022-08-11T02:37:33.857Z,13.00
2022-08-11T02:42:32.892Z,12.90
2022-08-11T02:47:02.990Z,12.90
2022-08-11T02:51:22.082Z,12.90
2022-08-11T02:56:37.566Z,12.80
2022-08-11T03:00:53.890Z,12.80
2022-08-11T03:05:23.432Z,12.70
2022-08-11T03:09:38.565Z,12.70
2022-08-11T03:14:23.315Z,12.70
2022-08-11T03:19:25.902Z,12.60
2022-08-11T03:24:01.696Z,12.60
2022-08-11T03:28:22.105Z,12.50
2022-08-11T03:32:29.239Z,12.40
2022-08-11T03:37:17.895Z,12.40
2022-08-11T03:42:02.265Z,12.30
2022-08-11T03:46:17.163Z,12.20
2022-08-11T03:50:48.927Z,12.20
2022-08-11T03:55:23.896Z,12.20
2022-08-11T04:00:03.935Z,12.20
2022-08-11T04:04:51.320Z,12.20
2022-08-11T04:09:11.076Z,12.20
2022-08-11T04:14:16.823Z,12.10
2022-08-11T04:18:50.684Z,12.10
2022-08-11T04:24:35.793Z,12.10
2022-08-11T04:28:55.604Z,12.10
2022-08-11T04:33:22.818Z,12.20
2022-08-11T04:37:42.456Z,12.20
2022-08-11T04:42:55.776Z,12.30
2022-08-11T04:48:03.542Z,12.40
2022-08-11T04:53:15.408Z,12.50
2022-08-11T04:58:22.234Z,12.50
2022-08-11T05:02:48.937Z,12.60
2022-08-11T05:07:25.961Z,12.70
2022-08-11T05:12:02.538Z,13.00
2022-08-11T05:16:29.011Z,13.20
2022-08-11T05:20:46.465Z,13.30
2022-08-11T05:25:11.002Z,13.40
2022-08-11T05:30:00.401Z,13.50
2022-08-11T05:34:21.562Z,13.50
2022-08-11T05:38:45.467Z,13.70
2022-08-11T05:43:25.875Z,14.00
2022-08-11T05:47:44.946Z,14.30
2022-08-11T05:52:05.380Z,14.60
2022-08-11T05:56:20.937Z,14.90
2022-08-11T06:00:20.191Z,15.10
2022-08-11T06:04:29.189Z,15.30
2022-08-11T06:08:36.249Z,15.50
2022-08-11T06:12:37.613Z,15.60
2022-08-11T06:16:35.788Z,15.80
2022-08-11T06:20:37.647Z,16.10
2022-08-11T06:24:39.134Z,16.40
2022-08-11T06:28:41.612Z,16.70
2022-08-11T06:32:41.874Z,16.90
2022-08-11T06:37:07.320Z,17.30
2022-08-11T06:41:31.943Z,17.60
2022-08-11T06:46:06.142Z,17.80
2022-08-11T06:50:25.261Z,18.00
2022-08-11T06:54:23.883Z,18.10
2022-08-11T06:58:41.869Z,18.30
2022-08-11T07:02:55.137Z,18.40
2022-08-11T07:07:37.594Z,18.50
2022-08-11T07:12:34.936Z,18.70
2022-08-11T07:16:36.478Z,18.90
2022-08-11T07:20:56.463Z,19.20
2022-08-11T07:25:33.815Z,19.40
2022-08-11T07:29:33.087Z,19.60
2022-08-11T07:34:07.127Z,19.90
2022-08-11T07:38:15.589Z,20.10
2022-08-11T07:42:22.246Z,20.30
2022-08-11T07:46:40.093Z,20.50
2022-08-11T07:51:01.604Z,20.70
2022-08-11T07:55:05.066Z,20.90
2022-08-11T07:59:22.892Z,21.20
2022-08-11T08:04:02.122Z,21.50
2022-08-11T08:08:18.315Z,21.70
2022-08-11T08:12:35.302Z,22.30
2022-08-11T08:16:51.732Z,23.10
2022-08-11T08:20:51.031Z,23.70
2022-08-11T08:24:49.188Z,23.70
2022-08-11T08:28:46.722Z,24.30
2022-08-11T08:32:45.025Z,24.90
2022-08-11T08:36:52.394Z,25.30
2022-08-11T08:40:56.221Z,24.90
2022-08-11T08:45:16.458Z,25.00
2022-08-11T08:49:29.728Z,25.70
2022-08-11T08:53:32.944Z,25.70
2022-08-11T08:57:39.419Z,25.30
2022-08-11T09:01:54.379Z,25.00
2022-08-11T09:05:56.128Z,24.90
2022-08-11T09:09:58.190Z,25.00
2022-08-11T09:14:05.737Z,25.40
2022-08-11T09:18:09.410Z,26.30
2022-08-11T09:22:27.159Z,27.60
2022-08-11T09:26:43.398Z,27.60
2022-08-11T09:30:55.225Z,27.50
2022-08-11T09:34:54.076Z,27.20
2022-08-11T09:39:12.498Z,27.30
2022-08-11T09:43:32.034Z,27.60
2022-08-11T09:47:30.640Z,27.90
2022-08-11T09:51:34.207Z,28.80
2022-08-11T09:55:33.393Z,29.10
2022-08-11T09:59:32.209Z,29.10
2022-08-11T10:03:33.012Z,29.50
2022-08-11T10:07:30.224Z,29.40
2022-08-11T10:11:29.206Z,29.40
2022-08-11T10:15:38.466Z,30.50
2022-08-11T10:19:38.032Z,31.50
2022-08-11T10:24:00.178Z,31.50
2022-08-11T10:28:30.558Z,31.10
2022-08-11T10:32:58.395Z,31.30
2022-08-11T10:37:03.237Z,30.50
2022-08-11T10:41:20.650Z,30.50
2022-08-11T10:45:38.323Z,30.90
2022-08-11T10:49:35.946Z,30.60
2022-08-11T10:53:53.896Z,30.90
2022-08-11T10:58:09.403Z,31.40
2022-08-11T11:02:06.712Z,31.50
2022-08-11T11:06:28.964Z,32.00
2022-08-11T11:10:26.910Z,32.60
2022-08-11T11:14:55.000Z,33.20
2022-08-11T11:19:02.876Z,33.40
2022-08-11T11:23:10.296Z,33.90
2022-08-11T11:27:32.013Z,34.00
2022-08-11T11:31:59.208Z,33.80
2022-08-11T11:36:23.908Z,32.60
2022-08-11T11:40:31.443Z,32.00
2022-08-11T11:44:31.031Z,31.80
2022-08-11T11:48:29.112Z,30.90
2022-08-11T11:52:27.356Z,32.30
2022-08-11T11:56:26.110Z,32.80
2022-08-11T12:00:44.498Z,33.70
2022-08-11T12:04:44.396Z,33.00
2022-08-11T12:08:43.688Z,32.70
2022-08-11T12:13:00.592Z,32.30
2022-08-11T12:16:59.386Z,33.30
2022-08-11T12:20:56.632Z,33.00
2022-08-11T12:25:15.475Z,33.60
2022-08-11T12:29:22.615Z,33.80
2022-08-11T12:33:24.082Z,32.70
2022-08-11T12:37:30.320Z,33.10
2022-08-11T12:41:46.698Z,34.20
2022-08-11T12:45:46.132Z,33.80
2022-08-11T12:50:23.194Z,35.00
2022-08-11T12:54:41.547Z,36.50
2022-08-11T12:58:42.972Z,34.50
2022-08-11T13:03:00.395Z,34.30
2022-08-11T13:06:57.495Z,34.80
2022-08-11T13:11:16.980Z,35.90
2022-08-11T13:15:24.783Z,35.00
2022-08-11T13:19:24.112Z,34.70
2022-08-11T13:23:24.778Z,35.30
2022-08-11T13:27:24.780Z,34.70
2022-08-11T13:31:22.161Z,34.10
2022-08-11T13:35:22.217Z,34.00
2022-08-11T13:39:24.133Z,34.10
2022-08-11T13:43:23.613Z,33.90
2022-08-11T13:47:23.721Z,33.30
2022-08-11T13:51:34.738Z,33.50
2022-08-11T13:55:45.076Z,33.50
2022-08-11T13:59:56.214Z,33.00
2022-08-11T14:04:30.551Z,33.20
2022-08-11T14:08:37.470Z,33.30
2022-08-11T14:12:58.477Z,34.30
2022-08-11T14:16:57.486Z,34.70
2022-08-11T14:21:18.145Z,34.00
2022-08-11T14:25:16.953Z,33.90
2022-08-11T14:33:20.430Z,34.40
2022-08-11T14:37:25.704Z,34.10
2022-08-11T14:42:10.767Z,34.60
2022-08-11T14:46:19.641Z,33.60
2022-08-11T14:50:24.237Z,33.50
2022-08-11T14:54:50.538Z,33.20
2022-08-11T14:58:47.745Z,34.20
2022-08-11T15:03:07.116Z,34.20
2022-08-11T15:07:04.884Z,34.90
2022-08-11T15:11:36.741Z,34.70
2022-08-11T15:15:53.766Z,34.90
2022-08-11T15:20:11.241Z,34.10
2022-08-11T15:24:31.029Z,34.70
2022-08-11T15:28:53.425Z,36.00
2022-08-11T15:33:11.532Z,36.00
2022-08-11T15:37:26.995Z,35.00
2022-08-11T15:42:20.508Z,33.70
2022-08-11T15:46:33.714Z,33.10
2022-08-11T15:50:38.826Z,33.30
2022-08-11T15:54:42.294Z,34.10
2022-08-11T15:59:40.897Z,34.00
2022-08-11T16:04:06.559Z,33.40
2022-08-11T16:08:04.398Z,34.10
2022-08-11T16:12:08.130Z,33.10
2022-08-11T16:16:17.440Z,33.30
2022-08-11T16:20:20.920Z,32.90
2022-08-11T16:27:04.287Z,32.30
2022-08-11T16:28:44.285Z,31.90
2022-08-11T16:32:45.875Z,32.00
2022-08-11T16:37:01.404Z,31.60
2022-08-11T16:41:02.540Z,31.40
2022-08-11T16:45:19.477Z,30.90
2022-08-11T16:49:25.058Z,30.50
2022-08-11T16:53:22.423Z,30.60
2022-08-11T16:58:00.321Z,31.10
2022-08-11T17:02:05.036Z,31.20
2022-08-11T17:06:24.306Z,31.20
2022-08-11T17:10:56.672Z,30.70
2022-08-11T17:15:00.920Z,30.30
2022-08-11T17:19:13.818Z,29.90
2022-08-11T17:23:30.412Z,29.30
2022-08-11T17:27:31.313Z,29.20
2022-08-11T17:31:48.953Z,29.00
2022-08-11T17:35:46.138Z,28.70
2022-08-11T17:39:45.989Z,28.50
2022-08-11T17:44:03.656Z,28.30
2022-08-11T17:48:21.784Z,28.30
2022-08-11T17:52:39.246Z,28.50
2022-08-11T17:56:55.433Z,28.50
2022-08-11T18:00:56.302Z,28.00
2022-08-11T18:04:55.907Z,27.80
2022-08-11T18:09:13.741Z,27.60
2022-08-11T18:13:31.002Z,27.30
2022-08-11T18:17:46.502Z,27.10
2022-08-11T18:22:15.583Z,26.70
2022-08-11T18:26:37.773Z,26.10
2022-08-11T18:31:03.119Z,25.40
2022-08-11T18:35:23.627Z,24.90
2022-08-11T18:39:41.965Z,24.60
2022-08-11T18:44:03.936Z,24.30
2022-08-11T18:48:34.223Z,24.10
2022-08-11T18:52:54.395Z,23.90
2022-08-11T18:57:12.987Z,23.70
2022-08-11T19:01:34.379Z,23.50
2022-08-11T19:06:32.565Z,23.40
2022-08-11T19:10:34.975Z,23.20
2022-08-11T19:14:53.783Z,23.10
2022-08-11T19:19:11.337Z,22.90
2022-08-11T19:23:31.038Z,22.70
2022-08-11T19:27:48.807Z,22.50
2022-08-11T19:32:06.260Z,22.20
2022-08-11T19:36:22.244Z,22.00
2022-08-11T19:40:39.757Z,21.80
2022-08-11T19:44:56.165Z,21.60
2022-08-11T19:49:15.962Z,21.40
2022-08-11T19:53:32.391Z,21.20
2022-08-11T19:57:50.978Z,21.00
2022-08-11T20:02:14.245Z,20.90
2022-08-11T20:06:32.613Z,20.70
2022-08-11T20:10:51.933Z,20.60
2022-08-11T20:15:11.073Z,20.50
2022-08-11T20:19:55.137Z,20.30
2022-08-11T20:24:07.004Z,20.20
2022-08-11T20:28:25.427Z,20.10
2022-08-11T20:32:43.108Z,20.00
2022-08-11T20:37:01.210Z,19.90
2022-08-11T20:41:19.964Z,19.80
2022-08-11T20:45:37.036Z,19.70
2022-08-11T20:50:11.080Z,19.50
2022-08-11T20:54:38.232Z,19.40
2022-08-11T20:59:18.289Z,19.20
2022-08-11T21:03:44.559Z,19.20
2022-08-11T21:08:08.481Z,19.10
2022-08-11T21:12:29.777Z,19.00
2022-08-11T21:16:56.178Z,19.00
2022-08-11T21:21:16.418Z,18.90
2022-08-11T21:25:38.062Z,18.80
2022-08-11T21:29:57.059Z,18.70
2022-08-11T21:34:14.585Z,18.60
2022-08-11T21:38:32.927Z,18.50
2022-08-11T21:42:55.421Z,18.40
2022-08-11T21:47:15.583Z,18.20
2022-08-11T21:51:32.880Z,18.10
2022-08-11T21:55:49.743Z,18.00
2022-08-11T22:00:16.569Z,18.00
2022-08-11T22:04:35.825Z,17.90
2022-08-11T22:08:53.024Z,17.80
2022-08-11T22:13:10.573Z,17.70
2022-08-11T22:17:25.969Z,17.60
2022-08-11T22:21:56.976Z,17.50
2022-08-11T22:26:20.893Z,17.40
2022-08-11T22:30:38.002Z,17.40
2022-08-11T22:34:53.983Z,17.30
2022-08-11T22:39:11.016Z,17.20
2022-08-11T22:43:26.655Z,17.10
2022-08-11T22:47:44.936Z,17.00
2022-08-11T22:52:02.944Z,16.90
2022-08-11T22:56:18.862Z,16.90
2022-08-11T23:00:48.704Z,16.70
2022-08-11T23:05:06.134Z,16.60
2022-08-11T23:09:24.620Z,16.60
2022-08-11T23:13:41.461Z,16.50
2022-08-11T23:17:57.541Z,16.40
2022-08-11T23:22:13.780Z,16.30
2022-08-11T23:26:30.927Z,16.20
2022-08-11T23:30:48.053Z,16.10
2022-08-11T23:35:40.216Z,16.00
2022-08-11T23:39:45.904Z,15.90
2022-08-11T23:44:03.585Z,15.80
2022-08-11T23:48:21.784Z,15.70
2022-08-11T23:52:38.901Z,15.60
2022-08-11T23:56:55.049Z,15.60
